sensor_id;sensor_type;location;lat;lon;timestamp;P1;durP1;ratioP1;P2;durP2;ratioP2
12214;SDS011;6170;42.206;24.142;2022-11-20T00:01:03;49.42;;;29.23;;
12214;SDS011;6170;42.206;24.142;2022-11-20T00:03:31;54.40;;;28.87;;
12214;SDS011;6170;42.206;24.142;2022-11-20T00:06:00;47.78;;;28.23;;
12214;SDS011;6170;42.206;24.142;2022-11-20T00:08:27;56.88;;;29.08;;
12214;SDS011;6170;42.206;24.142;2022-11-20T00:10:54;51.15;;;29.10;;
12214;SDS011;6170;42.206;24.142;2022-11-20T00:13:21;48.45;;;28.85;;
12214;SDS011;6170;42.206;24.142;2022-11-20T00:15:48;52.75;;;29.00;;
12214;SDS011;6170;42.206;24.142;2022-11-20T00:18:22;48.47;;;28.30;;
12214;SDS011;6170;42.206;24.142;2022-11-20T00:20:49;53.15;;;30.27;;
12214;SDS011;6170;42.206;24.142;2022-11-20T00:23:17;49.92;;;30.00;;
12214;SDS011;6170;42.206;24.142;2022-11-20T00:25:44;52.67;;;29.50;;
12214;SDS011;6170;42.206;24.142;2022-11-20T00:28:11;53.95;;;30.23;;
12214;SDS011;6170;42.206;24.142;2022-11-20T00:30:38;54.78;;;30.35;;
12214;SDS011;6170;42.206;24.142;2022-11-20T00:33:04;60.25;;;29.60;;
12214;SDS011;6170;42.206;24.142;2022-11-20T00:35:31;48.22;;;29.63;;
12214;SDS011;6170;42.206;24.142;2022-11-20T00:37:58;52.25;;;30.10;;
12214;SDS011;6170;42.206;24.142;2022-11-20T00:40:26;49.55;;;31.83;;
12214;SDS011;6170;42.206;24.142;2022-11-20T00:42:53;58.75;;;33.85;;
12214;SDS011;6170;42.206;24.142;2022-11-20T00:45:20;58.40;;;32.00;;
12214;SDS011;6170;42.206;24.142;2022-11-20T00:47:46;59.40;;;32.85;;
12214;SDS011;6170;42.206;24.142;2022-11-20T00:50:13;58.55;;;31.73;;
12214;SDS011;6170;42.206;24.142;2022-11-20T00:52:40;55.63;;;31.98;;
12214;SDS011;6170;42.206;24.142;2022-11-20T00:55:07;58.55;;;32.58;;
12214;SDS011;6170;42.206;24.142;2022-11-20T00:57:35;64.00;;;33.17;;
12214;SDS011;6170;42.206;24.142;2022-11-20T01:00:02;60.75;;;33.58;;
12214;SDS011;6170;42.206;24.142;2022-11-20T01:02:30;62.83;;;33.17;;
12214;SDS011;6170;42.206;24.142;2022-11-20T01:04:56;64.65;;;34.60;;
12214;SDS011;6170;42.206;24.142;2022-11-20T01:07:23;62.65;;;33.15;;
12214;SDS011;6170;42.206;24.142;2022-11-20T01:09:50;64.68;;;35.22;;
12214;SDS011;6170;42.206;24.142;2022-11-20T01:12:17;70.50;;;36.00;;
12214;SDS011;6170;42.206;24.142;2022-11-20T01:14:45;67.82;;;34.25;;
12214;SDS011;6170;42.206;24.142;2022-11-20T01:17:13;57.20;;;32.42;;
12214;SDS011;6170;42.206;24.142;2022-11-20T01:19:40;56.55;;;32.47;;
12214;SDS011;6170;42.206;24.142;2022-11-20T01:22:06;56.35;;;31.73;;
12214;SDS011;6170;42.206;24.142;2022-11-20T01:24:33;56.92;;;32.45;;
12214;SDS011;6170;42.206;24.142;2022-11-20T01:27:00;55.97;;;31.92;;
12214;SDS011;6170;42.206;24.142;2022-11-20T01:29:27;58.55;;;32.08;;
12214;SDS011;6170;42.206;24.142;2022-11-20T01:31:55;57.75;;;34.15;;
12214;SDS011;6170;42.206;24.142;2022-11-20T01:34:22;61.58;;;31.38;;
12214;SDS011;6170;42.206;24.142;2022-11-20T01:36:50;63.50;;;31.88;;
12214;SDS011;6170;42.206;24.142;2022-11-20T01:39:18;59.42;;;35.28;;
12214;SDS011;6170;42.206;24.142;2022-11-20T01:41:46;56.47;;;33.38;;
12214;SDS011;6170;42.206;24.142;2022-11-20T01:44:43;58.03;;;31.65;;
12214;SDS011;6170;42.206;24.142;2022-11-20T01:47:17;57.47;;;31.55;;
12214;SDS011;6170;42.206;24.142;2022-11-20T01:49:50;56.10;;;31.48;;
12214;SDS011;6170;42.206;24.142;2022-11-20T01:52:19;51.28;;;30.77;;
12214;SDS011;6170;42.206;24.142;2022-11-20T01:54:48;52.60;;;30.70;;
12214;SDS011;6170;42.206;24.142;2022-11-20T01:57:19;48.97;;;29.23;;
12214;SDS011;6170;42.206;24.142;2022-11-20T01:59:48;52.05;;;28.48;;
12214;SDS011;6170;42.206;24.142;2022-11-20T02:02:22;50.58;;;29.83;;
12214;SDS011;6170;42.206;24.142;2022-11-20T02:04:49;51.42;;;29.33;;
12214;SDS011;6170;42.206;24.142;2022-11-20T02:07:20;46.67;;;28.80;;
12214;SDS011;6170;42.206;24.142;2022-11-20T02:09:49;58.80;;;32.25;;
12214;SDS011;6170;42.206;24.142;2022-11-20T02:12:17;54.67;;;30.17;;
12214;SDS011;6170;42.206;24.142;2022-11-20T02:14:58;57.53;;;29.40;;
12214;SDS011;6170;42.206;24.142;2022-11-20T02:17:26;51.47;;;29.63;;
12214;SDS011;6170;42.206;24.142;2022-11-20T02:19:53;55.40;;;29.77;;
12214;SDS011;6170;42.206;24.142;2022-11-20T02:22:21;51.47;;;28.00;;
12214;SDS011;6170;42.206;24.142;2022-11-20T02:24:56;54.53;;;29.20;;
12214;SDS011;6170;42.206;24.142;2022-11-20T02:27:25;52.20;;;29.25;;
12214;SDS011;6170;42.206;24.142;2022-11-20T02:29:53;61.28;;;30.80;;
12214;SDS011;6170;42.206;24.142;2022-11-20T02:32:23;50.95;;;29.40;;
12214;SDS011;6170;42.206;24.142;2022-11-20T02:34:52;53.47;;;29.17;;
12214;SDS011;6170;42.206;24.142;2022-11-20T02:37:20;49.83;;;30.58;;
12214;SDS011;6170;42.206;24.142;2022-11-20T02:39:47;65.65;;;34.65;;
12214;SDS011;6170;42.206;24.142;2022-11-20T02:42:17;60.95;;;34.40;;
12214;SDS011;6170;42.206;24.142;2022-11-20T02:44:44;59.47;;;35.00;;
12214;SDS011;6170;42.206;24.142;2022-11-20T02:47:11;62.58;;;32.95;;
12214;SDS011;6170;42.206;24.142;2022-11-20T02:49:38;51.60;;;30.25;;
12214;SDS011;6170;42.206;24.142;2022-11-20T02:52:05;55.58;;;33.45;;
12214;SDS011;6170;42.206;24.142;2022-11-20T02:54:31;61.10;;;32.80;;
12214;SDS011;6170;42.206;24.142;2022-11-20T02:56:58;63.60;;;33.40;;
12214;SDS011;6170;42.206;24.142;2022-11-20T02:59:26;54.83;;;32.28;;
12214;SDS011;6170;42.206;24.142;2022-11-20T03:01:53;69.65;;;35.55;;
12214;SDS011;6170;42.206;24.142;2022-11-20T03:04:19;56.80;;;32.85;;
12214;SDS011;6170;42.206;24.142;2022-11-20T03:06:46;56.72;;;31.52;;
12214;SDS011;6170;42.206;24.142;2022-11-20T03:09:13;51.25;;;31.63;;
12214;SDS011;6170;42.206;24.142;2022-11-20T03:11:40;55.30;;;29.70;;
12214;SDS011;6170;42.206;24.142;2022-11-20T03:14:06;48.45;;;30.30;;
12214;SDS011;6170;42.206;24.142;2022-11-20T03:16:35;64.57;;;31.95;;
12214;SDS011;6170;42.206;24.142;2022-11-20T03:19:01;78.90;;;38.45;;
12214;SDS011;6170;42.206;24.142;2022-11-20T03:21:28;59.38;;;33.00;;
12214;SDS011;6170;42.206;24.142;2022-11-20T03:23:55;57.35;;;30.70;;
12214;SDS011;6170;42.206;24.142;2022-11-20T03:26:23;58.53;;;32.88;;
12214;SDS011;6170;42.206;24.142;2022-11-20T03:28:51;57.17;;;30.55;;
12214;SDS011;6170;42.206;24.142;2022-11-20T03:31:20;55.22;;;31.42;;
12214;SDS011;6170;42.206;24.142;2022-11-20T03:33:49;55.75;;;30.63;;
12214;SDS011;6170;42.206;24.142;2022-11-20T03:36:17;56.42;;;32.42;;
12214;SDS011;6170;42.206;24.142;2022-11-20T03:38:45;49.40;;;29.90;;
12214;SDS011;6170;42.206;24.142;2022-11-20T03:41:12;51.17;;;30.77;;
12214;SDS011;6170;42.206;24.142;2022-11-20T03:43:40;59.95;;;30.92;;
12214;SDS011;6170;42.206;24.142;2022-11-20T03:46:07;56.92;;;31.63;;
12214;SDS011;6170;42.206;24.142;2022-11-20T03:48:34;51.05;;;29.75;;
12214;SDS011;6170;42.206;24.142;2022-11-20T03:51:09;50.90;;;29.02;;
12214;SDS011;6170;42.206;24.142;2022-11-20T03:53:40;51.42;;;29.98;;
12214;SDS011;6170;42.206;24.142;2022-11-20T03:56:08;41.45;;;26.58;;
12214;SDS011;6170;42.206;24.142;2022-11-20T03:58:35;43.78;;;26.00;;
12214;SDS011;6170;42.206;24.142;2022-11-20T04:01:05;42.55;;;25.52;;
12214;SDS011;6170;42.206;24.142;2022-11-20T04:03:33;48.67;;;25.00;;
12214;SDS011;6170;42.206;24.142;2022-11-20T04:06:04;37.13;;;25.15;;
12214;SDS011;6170;42.206;24.142;2022-11-20T04:08:33;43.95;;;25.33;;
12214;SDS011;6170;42.206;24.142;2022-11-20T04:11:09;47.63;;;25.98;;
12214;SDS011;6170;42.206;24.142;2022-11-20T04:13:37;36.28;;;24.23;;
12214;SDS011;6170;42.206;24.142;2022-11-20T04:16:04;37.78;;;23.95;;
12214;SDS011;6170;42.206;24.142;2022-11-20T04:18:32;38.45;;;24.75;;
12214;SDS011;6170;42.206;24.142;2022-11-20T04:20:59;39.03;;;24.27;;
12214;SDS011;6170;42.206;24.142;2022-11-20T04:23:26;39.60;;;23.95;;
12214;SDS011;6170;42.206;24.142;2022-11-20T04:25:54;52.70;;;28.10;;
12214;SDS011;6170;42.206;24.142;2022-11-20T04:28:27;43.47;;;28.27;;
12214;SDS011;6170;42.206;24.142;2022-11-20T04:30:53;45.90;;;26.95;;
12214;SDS011;6170;42.206;24.142;2022-11-20T04:33:20;43.50;;;25.50;;
12214;SDS011;6170;42.206;24.142;2022-11-20T04:35:47;47.10;;;25.70;;
12214;SDS011;6170;42.206;24.142;2022-11-20T04:38:14;44.17;;;26.00;;
12214;SDS011;6170;42.206;24.142;2022-11-20T04:40:40;45.67;;;24.85;;
12214;SDS011;6170;42.206;24.142;2022-11-20T04:43:08;37.55;;;24.92;;
12214;SDS011;6170;42.206;24.142;2022-11-20T04:45:35;40.47;;;24.63;;
12214;SDS011;6170;42.206;24.142;2022-11-20T04:48:02;37.40;;;23.58;;
12214;SDS011;6170;42.206;24.142;2022-11-20T04:50:29;39.35;;;22.77;;
12214;SDS011;6170;42.206;24.142;2022-11-20T04:52:56;36.75;;;23.60;;
12214;SDS011;6170;42.206;24.142;2022-11-20T04:55:22;43.00;;;25.25;;
12214;SDS011;6170;42.206;24.142;2022-11-20T04:57:49;43.38;;;25.23;;
12214;SDS011;6170;42.206;24.142;2022-11-20T05:00:18;42.30;;;26.20;;
12214;SDS011;6170;42.206;24.142;2022-11-20T05:02:45;50.05;;;26.77;;
12214;SDS011;6170;42.206;24.142;2022-11-20T05:05:12;47.05;;;27.13;;
12214;SDS011;6170;42.206;24.142;2022-11-20T05:07:38;44.13;;;27.25;;
12214;SDS011;6170;42.206;24.142;2022-11-20T05:10:06;42.75;;;27.73;;
12214;SDS011;6170;42.206;24.142;2022-11-20T05:12:33;43.85;;;27.25;;
12214;SDS011;6170;42.206;24.142;2022-11-20T05:14:59;47.15;;;27.88;;
12214;SDS011;6170;42.206;24.142;2022-11-20T05:17:28;42.55;;;27.98;;
12214;SDS011;6170;42.206;24.142;2022-11-20T05:19:54;52.42;;;28.75;;
12214;SDS011;6170;42.206;24.142;2022-11-20T05:22:21;46.90;;;28.48;;
12214;SDS011;6170;42.206;24.142;2022-11-20T05:24:48;44.00;;;28.20;;
12214;SDS011;6170;42.206;24.142;2022-11-20T05:27:15;44.25;;;26.75;;
12214;SDS011;6170;42.206;24.142;2022-11-20T05:29:42;44.90;;;27.40;;
12214;SDS011;6170;42.206;24.142;2022-11-20T05:32:08;46.83;;;26.60;;
12214;SDS011;6170;42.206;24.142;2022-11-20T05:34:36;49.92;;;26.45;;
12214;SDS011;6170;42.206;24.142;2022-11-20T05:37:03;42.22;;;25.92;;
12214;SDS011;6170;42.206;24.142;2022-11-20T05:39:30;41.75;;;24.95;;
12214;SDS011;6170;42.206;24.142;2022-11-20T05:41:57;37.03;;;24.48;;
12214;SDS011;6170;42.206;24.142;2022-11-20T05:44:37;40.13;;;24.77;;
12214;SDS011;6170;42.206;24.142;2022-11-20T05:47:04;42.17;;;24.92;;
12214;SDS011;6170;42.206;24.142;2022-11-20T05:49:31;42.75;;;23.73;;
12214;SDS011;6170;42.206;24.142;2022-11-20T05:51:59;42.42;;;24.73;;
12214;SDS011;6170;42.206;24.142;2022-11-20T05:54:26;36.45;;;24.50;;
12214;SDS011;6170;42.206;24.142;2022-11-20T05:56:53;42.42;;;23.25;;
12214;SDS011;6170;42.206;24.142;2022-11-20T05:59:20;32.38;;;21.85;;
12214;SDS011;6170;42.206;24.142;2022-11-20T06:01:46;34.50;;;20.60;;
12214;SDS011;6170;42.206;24.142;2022-11-20T06:04:13;35.15;;;19.60;;
12214;SDS011;6170;42.206;24.142;2022-11-20T06:06:40;33.95;;;20.13;;
12214;SDS011;6170;42.206;24.142;2022-11-20T06:09:08;34.47;;;20.38;;
12214;SDS011;6170;42.206;24.142;2022-11-20T06:11:35;33.22;;;20.17;;
12214;SDS011;6170;42.206;24.142;2022-11-20T06:14:01;30.17;;;20.63;;
12214;SDS011;6170;42.206;24.142;2022-11-20T06:16:28;31.20;;;20.45;;
12214;SDS011;6170;42.206;24.142;2022-11-20T06:18:55;34.45;;;20.42;;
12214;SDS011;6170;42.206;24.142;2022-11-20T06:21:22;34.03;;;18.77;;
12214;SDS011;6170;42.206;24.142;2022-11-20T06:23:49;35.90;;;19.88;;
12214;SDS011;6170;42.206;24.142;2022-11-20T06:26:18;29.48;;;18.52;;
12214;SDS011;6170;42.206;24.142;2022-11-20T06:28:46;32.30;;;19.50;;
12214;SDS011;6170;42.206;24.142;2022-11-20T06:31:14;24.65;;;17.33;;
12214;SDS011;6170;42.206;24.142;2022-11-20T06:33:42;29.45;;;17.55;;
12214;SDS011;6170;42.206;24.142;2022-11-20T06:36:10;93.38;;;37.50;;
12214;SDS011;6170;42.206;24.142;2022-11-20T06:38:38;42.70;;;22.13;;
12214;SDS011;6170;42.206;24.142;2022-11-20T06:41:05;54.13;;;28.00;;
12214;SDS011;6170;42.206;24.142;2022-11-20T06:43:34;29.13;;;15.88;;
12214;SDS011;6170;42.206;24.142;2022-11-20T06:46:01;30.42;;;17.00;;
12214;SDS011;6170;42.206;24.142;2022-11-20T06:48:27;24.83;;;14.75;;
12214;SDS011;6170;42.206;24.142;2022-11-20T06:50:55;18.75;;;11.98;;
12214;SDS011;6170;42.206;24.142;2022-11-20T06:53:22;15.38;;;10.57;;
12214;SDS011;6170;42.206;24.142;2022-11-20T06:55:50;15.32;;;9.90;;
12214;SDS011;6170;42.206;24.142;2022-11-20T06:58:17;9.85;;;8.20;;
12214;SDS011;6170;42.206;24.142;2022-11-20T07:00:46;14.60;;;8.85;;
12214;SDS011;6170;42.206;24.142;2022-11-20T07:03:13;17.83;;;10.70;;
12214;SDS011;6170;42.206;24.142;2022-11-20T07:05:40;12.82;;;8.57;;
12214;SDS011;6170;42.206;24.142;2022-11-20T07:08:07;16.77;;;10.52;;
12214;SDS011;6170;42.206;24.142;2022-11-20T07:10:34;14.05;;;8.93;;
12214;SDS011;6170;42.206;24.142;2022-11-20T07:13:01;17.15;;;9.63;;
12214;SDS011;6170;42.206;24.142;2022-11-20T07:15:28;14.57;;;7.43;;
12214;SDS011;6170;42.206;24.142;2022-11-20T07:17:57;15.48;;;6.32;;
12214;SDS011;6170;42.206;24.142;2022-11-20T07:20:24;10.25;;;6.38;;
12214;SDS011;6170;42.206;24.142;2022-11-20T07:22:53;7.57;;;5.15;;
12214;SDS011;6170;42.206;24.142;2022-11-20T07:25:20;8.02;;;5.22;;
12214;SDS011;6170;42.206;24.142;2022-11-20T07:27:47;7.82;;;4.28;;
12214;SDS011;6170;42.206;24.142;2022-11-20T07:30:14;9.35;;;4.95;;
12214;SDS011;6170;42.206;24.142;2022-11-20T07:32:41;17.05;;;6.10;;
12214;SDS011;6170;42.206;24.142;2022-11-20T07:35:09;11.50;;;6.07;;
12214;SDS011;6170;42.206;24.142;2022-11-20T07:37:36;11.05;;;5.60;;
12214;SDS011;6170;42.206;24.142;2022-11-20T07:40:03;7.75;;;4.20;;
12214;SDS011;6170;42.206;24.142;2022-11-20T07:42:31;9.80;;;4.18;;
12214;SDS011;6170;42.206;24.142;2022-11-20T07:44:57;7.43;;;3.58;;
12214;SDS011;6170;42.206;24.142;2022-11-20T07:47:24;7.90;;;3.38;;
12214;SDS011;6170;42.206;24.142;2022-11-20T07:49:51;10.98;;;3.92;;
12214;SDS011;6170;42.206;24.142;2022-11-20T07:52:19;7.18;;;3.30;;
12214;SDS011;6170;42.206;24.142;2022-11-20T07:54:46;6.82;;;3.40;;
12214;SDS011;6170;42.206;24.142;2022-11-20T07:57:12;11.60;;;3.80;;
12214;SDS011;6170;42.206;24.142;2022-11-20T07:59:39;8.38;;;3.47;;
12214;SDS011;6170;42.206;24.142;2022-11-20T08:02:09;12.77;;;3.63;;
12214;SDS011;6170;42.206;24.142;2022-11-20T08:04:36;7.65;;;3.33;;
12214;SDS011;6170;42.206;24.142;2022-11-20T08:07:03;11.88;;;3.47;;
12214;SDS011;6170;42.206;24.142;2022-11-20T08:09:31;6.78;;;2.65;;
12214;SDS011;6170;42.206;24.142;2022-11-20T08:11:58;6.57;;;3.13;;
12214;SDS011;6170;42.206;24.142;2022-11-20T08:14:44;9.52;;;4.30;;
12214;SDS011;6170;42.206;24.142;2022-11-20T08:17:11;10.75;;;3.70;;
12214;SDS011;6170;42.206;24.142;2022-11-20T08:19:38;17.88;;;8.35;;
12214;SDS011;6170;42.206;24.142;2022-11-20T08:22:05;10.80;;;3.92;;
12214;SDS011;6170;42.206;24.142;2022-11-20T08:24:33;8.23;;;3.60;;
12214;SDS011;6170;42.206;24.142;2022-11-20T08:27:00;7.07;;;3.20;;
12214;SDS011;6170;42.206;24.142;2022-11-20T08:29:26;12.18;;;3.75;;
12214;SDS011;6170;42.206;24.142;2022-11-20T08:31:53;9.55;;;3.88;;
12214;SDS011;6170;42.206;24.142;2022-11-20T08:34:20;9.48;;;3.13;;
12214;SDS011;6170;42.206;24.142;2022-11-20T08:36:47;13.70;;;3.72;;
12214;SDS011;6170;42.206;24.142;2022-11-20T08:39:14;7.03;;;3.00;;
12214;SDS011;6170;42.206;24.142;2022-11-20T08:41:42;6.80;;;2.75;;
12214;SDS011;6170;42.206;24.142;2022-11-20T08:44:09;9.50;;;2.75;;
12214;SDS011;6170;42.206;24.142;2022-11-20T08:46:36;9.77;;;3.05;;
12214;SDS011;6170;42.206;24.142;2022-11-20T08:49:06;7.50;;;2.40;;
12214;SDS011;6170;42.206;24.142;2022-11-20T08:51:34;7.07;;;2.55;;
12214;SDS011;6170;42.206;24.142;2022-11-20T08:54:02;9.75;;;2.75;;
12214;SDS011;6170;42.206;24.142;2022-11-20T08:56:30;9.88;;;2.53;;
12214;SDS011;6170;42.206;24.142;2022-11-20T08:58:58;8.23;;;2.53;;
12214;SDS011;6170;42.206;24.142;2022-11-20T09:01:25;10.73;;;2.50;;
12214;SDS011;6170;42.206;24.142;2022-11-20T09:03:54;10.38;;;3.40;;
12214;SDS011;6170;42.206;24.142;2022-11-20T09:06:21;12.77;;;3.42;;
12214;SDS011;6170;42.206;24.142;2022-11-20T09:08:51;5.40;;;2.75;;
12214;SDS011;6170;42.206;24.142;2022-11-20T09:11:18;7.55;;;2.80;;
12214;SDS011;6170;42.206;24.142;2022-11-20T09:13:45;11.73;;;4.10;;
12214;SDS011;6170;42.206;24.142;2022-11-20T09:16:13;7.45;;;3.08;;
12214;SDS011;6170;42.206;24.142;2022-11-20T09:18:40;7.75;;;3.05;;
12214;SDS011;6170;42.206;24.142;2022-11-20T09:21:08;9.85;;;3.10;;
12214;SDS011;6170;42.206;24.142;2022-11-20T09:23:37;7.80;;;2.90;;
12214;SDS011;6170;42.206;24.142;2022-11-20T09:26:05;7.10;;;3.03;;
12214;SDS011;6170;42.206;24.142;2022-11-20T09:28:33;9.43;;;2.92;;
12214;SDS011;6170;42.206;24.142;2022-11-20T09:31:00;8.00;;;2.90;;
12214;SDS011;6170;42.206;24.142;2022-11-20T09:33:28;9.52;;;3.00;;
12214;SDS011;6170;42.206;24.142;2022-11-20T09:35:55;7.45;;;2.85;;
12214;SDS011;6170;42.206;24.142;2022-11-20T09:38:22;12.45;;;3.38;;
12214;SDS011;6170;42.206;24.142;2022-11-20T09:40:50;9.57;;;3.38;;
12214;SDS011;6170;42.206;24.142;2022-11-20T09:43:24;9.82;;;2.97;;
12214;SDS011;6170;42.206;24.142;2022-11-20T09:46:04;14.95;;;8.40;;
12214;SDS011;6170;42.206;24.142;2022-11-20T09:48:48;12.73;;;4.28;;
12214;SDS011;6170;42.206;24.142;2022-11-20T09:51:35;9.60;;;2.97;;
12214;SDS011;6170;42.206;24.142;2022-11-20T09:54:13;10.43;;;3.22;;
12214;SDS011;6170;42.206;24.142;2022-11-20T09:56:44;11.18;;;3.58;;
12214;SDS011;6170;42.206;24.142;2022-11-20T09:59:15;10.13;;;3.15;;
12214;SDS011;6170;42.206;24.142;2022-11-20T10:01:54;16.17;;;3.97;;
12214;SDS011;6170;42.206;24.142;2022-11-20T10:04:24;13.88;;;3.97;;
12214;SDS011;6170;42.206;24.142;2022-11-20T10:06:52;13.30;;;3.35;;
12214;SDS011;6170;42.206;24.142;2022-11-20T10:09:27;15.80;;;3.58;;
12214;SDS011;6170;42.206;24.142;2022-11-20T10:12:01;13.40;;;3.92;;
12214;SDS011;6170;42.206;24.142;2022-11-20T10:14:41;13.65;;;4.38;;
12214;SDS011;6170;42.206;24.142;2022-11-20T10:17:20;22.20;;;4.68;;
12214;SDS011;6170;42.206;24.142;2022-11-20T10:19:59;23.95;;;4.22;;
12214;SDS011;6170;42.206;24.142;2022-11-20T10:22:42;13.43;;;3.40;;
12214;SDS011;6170;42.206;24.142;2022-11-20T10:25:18;13.65;;;3.53;;
12214;SDS011;6170;42.206;24.142;2022-11-20T10:27:56;9.38;;;3.25;;
12214;SDS011;6170;42.206;24.142;2022-11-20T10:30:42;14.88;;;3.92;;
12214;SDS011;6170;42.206;24.142;2022-11-20T10:33:13;10.60;;;3.80;;
12214;SDS011;6170;42.206;24.142;2022-11-20T10:35:49;14.48;;;3.63;;
12214;SDS011;6170;42.206;24.142;2022-11-20T10:38:20;13.07;;;5.63;;
12214;SDS011;6170;42.206;24.142;2022-11-20T10:40:52;20.57;;;7.07;;
12214;SDS011;6170;42.206;24.142;2022-11-20T10:43:42;12.05;;;4.30;;
12214;SDS011;6170;42.206;24.142;2022-11-20T10:46:12;35.53;;;13.32;;
12214;SDS011;6170;42.206;24.142;2022-11-20T10:48:42;19.95;;;7.28;;
12214;SDS011;6170;42.206;24.142;2022-11-20T10:51:15;21.17;;;8.27;;
12214;SDS011;6170;42.206;24.142;2022-11-20T10:53:54;27.15;;;5.43;;
12214;SDS011;6170;42.206;24.142;2022-11-20T10:56:29;16.33;;;6.30;;
12214;SDS011;6170;42.206;24.142;2022-11-20T10:59:11;21.65;;;5.85;;
12214;SDS011;6170;42.206;24.142;2022-11-20T11:01:51;19.70;;;5.97;;
12214;SDS011;6170;42.206;24.142;2022-11-20T11:04:22;22.30;;;5.45;;
12214;SDS011;6170;42.206;24.142;2022-11-20T11:06:58;23.83;;;8.00;;
12214;SDS011;6170;42.206;24.142;2022-11-20T11:09:33;27.45;;;3.72;;
12214;SDS011;6170;42.206;24.142;2022-11-20T11:12:05;23.40;;;4.40;;
12214;SDS011;6170;42.206;24.142;2022-11-20T11:14:41;26.25;;;3.92;;
12214;SDS011;6170;42.206;24.142;2022-11-20T11:17:18;20.20;;;2.83;;
12214;SDS011;6170;42.206;24.142;2022-11-20T11:19:56;20.70;;;3.45;;
12214;SDS011;6170;42.206;24.142;2022-11-20T11:22:28;14.95;;;3.80;;
12214;SDS011;6170;42.206;24.142;2022-11-20T11:24:56;17.45;;;3.95;;
12214;SDS011;6170;42.206;24.142;2022-11-20T11:27:23;22.58;;;3.33;;
12214;SDS011;6170;42.206;24.142;2022-11-20T11:29:50;29.35;;;3.38;;
12214;SDS011;6170;42.206;24.142;2022-11-20T11:32:29;23.48;;;4.45;;
12214;SDS011;6170;42.206;24.142;2022-11-20T11:35:00;14.23;;;3.70;;
12214;SDS011;6170;42.206;24.142;2022-11-20T11:37:31;14.10;;;3.00;;
12214;SDS011;6170;42.206;24.142;2022-11-20T11:40:00;17.75;;;4.60;;
12214;SDS011;6170;42.206;24.142;2022-11-20T11:42:28;12.85;;;3.25;;
12214;SDS011;6170;42.206;24.142;2022-11-20T11:44:56;17.30;;;3.47;;
12214;SDS011;6170;42.206;24.142;2022-11-20T11:47:30;19.92;;;4.07;;
12214;SDS011;6170;42.206;24.142;2022-11-20T11:50:07;20.48;;;5.88;;
12214;SDS011;6170;42.206;24.142;2022-11-20T11:52:43;24.20;;;3.92;;
12214;SDS011;6170;42.206;24.142;2022-11-20T11:55:14;28.83;;;3.63;;
12214;SDS011;6170;42.206;24.142;2022-11-20T11:57:45;20.80;;;4.43;;
12214;SDS011;6170;42.206;24.142;2022-11-20T12:00:16;18.60;;;3.25;;
12214;SDS011;6170;42.206;24.142;2022-11-20T12:02:49;23.63;;;5.78;;
12214;SDS011;6170;42.206;24.142;2022-11-20T12:05:23;23.23;;;4.93;;
12214;SDS011;6170;42.206;24.142;2022-11-20T12:07:54;16.02;;;3.25;;
12214;SDS011;6170;42.206;24.142;2022-11-20T12:10:29;15.68;;;3.00;;
12214;SDS011;6170;42.206;24.142;2022-11-20T12:13:12;25.08;;;5.55;;
12214;SDS011;6170;42.206;24.142;2022-11-20T12:15:47;18.58;;;4.03;;
12214;SDS011;6170;42.206;24.142;2022-11-20T12:18:15;15.98;;;3.75;;
12214;SDS011;6170;42.206;24.142;2022-11-20T12:20:45;22.98;;;4.32;;
12214;SDS011;6170;42.206;24.142;2022-11-20T12:23:30;17.45;;;3.85;;
12214;SDS011;6170;42.206;24.142;2022-11-20T12:26:13;25.27;;;3.75;;
12214;SDS011;6170;42.206;24.142;2022-11-20T12:28:50;18.75;;;3.95;;
12214;SDS011;6170;42.206;24.142;2022-11-20T12:31:35;23.17;;;3.20;;
12214;SDS011;6170;42.206;24.142;2022-11-20T12:37:03;22.88;;;4.68;;
12214;SDS011;6170;42.206;24.142;2022-11-20T12:39:42;21.70;;;5.10;;
12214;SDS011;6170;42.206;24.142;2022-11-20T12:42:15;17.10;;;4.95;;
12214;SDS011;6170;42.206;24.142;2022-11-20T12:51:18;24.33;;;5.13;;
12214;SDS011;6170;42.206;24.142;2022-11-20T12:54:00;26.58;;;6.13;;
12214;SDS011;6170;42.206;24.142;2022-11-20T12:56:40;23.92;;;5.35;;
12214;SDS011;6170;42.206;24.142;2022-11-20T12:59:19;19.27;;;4.32;;
12214;SDS011;6170;42.206;24.142;2022-11-20T13:02:01;15.55;;;4.95;;
12214;SDS011;6170;42.206;24.142;2022-11-20T13:04:46;23.08;;;4.47;;
12214;SDS011;6170;42.206;24.142;2022-11-20T13:07:30;19.65;;;7.00;;
12214;SDS011;6170;42.206;24.142;2022-11-20T13:09:59;21.35;;;4.25;;
12214;SDS011;6170;42.206;24.142;2022-11-20T13:12:30;14.27;;;3.17;;
12214;SDS011;6170;42.206;24.142;2022-11-20T13:15:01;10.50;;;2.92;;
12214;SDS011;6170;42.206;24.142;2022-11-20T13:17:37;15.10;;;2.90;;
12214;SDS011;6170;42.206;24.142;2022-11-20T13:20:12;12.85;;;2.92;;
12214;SDS011;6170;42.206;24.142;2022-11-20T13:22:42;14.20;;;3.25;;
12214;SDS011;6170;42.206;24.142;2022-11-20T13:25:21;13.80;;;2.35;;
12214;SDS011;6170;42.206;24.142;2022-11-20T13:27:50;14.15;;;4.20;;
12214;SDS011;6170;42.206;24.142;2022-11-20T13:30:18;13.63;;;2.35;;
12214;SDS011;6170;42.206;24.142;2022-11-20T13:32:50;9.88;;;2.08;;
12214;SDS011;6170;42.206;24.142;2022-11-20T13:35:29;11.52;;;1.90;;
12214;SDS011;6170;42.206;24.142;2022-11-20T13:38:01;11.02;;;2.75;;
12214;SDS011;6170;42.206;24.142;2022-11-20T13:40:33;10.77;;;2.80;;
12214;SDS011;6170;42.206;24.142;2022-11-20T13:43:07;15.77;;;2.85;;
12214;SDS011;6170;42.206;24.142;2022-11-20T13:45:54;12.70;;;2.70;;
12214;SDS011;6170;42.206;24.142;2022-11-20T13:48:23;17.25;;;4.05;;
12214;SDS011;6170;42.206;24.142;2022-11-20T13:50:57;32.28;;;9.20;;
12214;SDS011;6170;42.206;24.142;2022-11-20T13:53:46;11.88;;;2.95;;
12214;SDS011;6170;42.206;24.142;2022-11-20T13:56:24;11.80;;;3.13;;
12214;SDS011;6170;42.206;24.142;2022-11-20T13:59:02;13.65;;;2.75;;
12214;SDS011;6170;42.206;24.142;2022-11-20T14:01:37;13.35;;;2.50;;
12214;SDS011;6170;42.206;24.142;2022-11-20T14:04:06;16.48;;;3.67;;
12214;SDS011;6170;42.206;24.142;2022-11-20T14:06:38;13.43;;;2.50;;
12214;SDS011;6170;42.206;24.142;2022-11-20T14:09:10;13.52;;;2.33;;
12214;SDS011;6170;42.206;24.142;2022-11-20T14:11:45;11.18;;;3.20;;
12214;SDS011;6170;42.206;24.142;2022-11-20T14:14:15;9.13;;;3.00;;
12214;SDS011;6170;42.206;24.142;2022-11-20T14:16:42;5.40;;;2.00;;
12214;SDS011;6170;42.206;24.142;2022-11-20T14:19:26;9.38;;;2.10;;
12214;SDS011;6170;42.206;24.142;2022-11-20T14:22:06;8.95;;;1.88;;
12214;SDS011;6170;42.206;24.142;2022-11-20T14:24:35;4.65;;;1.75;;
12214;SDS011;6170;42.206;24.142;2022-11-20T14:27:02;8.60;;;1.70;;
12214;SDS011;6170;42.206;24.142;2022-11-20T14:29:34;9.00;;;2.17;;
12214;SDS011;6170;42.206;24.142;2022-11-20T14:32:02;9.07;;;2.45;;
12214;SDS011;6170;42.206;24.142;2022-11-20T14:34:31;9.13;;;3.38;;
12214;SDS011;6170;42.206;24.142;2022-11-20T14:37:00;10.65;;;3.20;;
12214;SDS011;6170;42.206;24.142;2022-11-20T14:39:29;8.60;;;3.72;;
12214;SDS011;6170;42.206;24.142;2022-11-20T14:41:59;7.43;;;2.60;;
12214;SDS011;6170;42.206;24.142;2022-11-20T14:44:27;4.68;;;1.45;;
12214;SDS011;6170;42.206;24.142;2022-11-20T14:46:58;4.30;;;1.23;;
12214;SDS011;6170;42.206;24.142;2022-11-20T14:49:26;3.50;;;1.48;;
12214;SDS011;6170;42.206;24.142;2022-11-20T14:52:00;3.65;;;1.15;;
12214;SDS011;6170;42.206;24.142;2022-11-20T14:54:28;5.30;;;1.27;;
12214;SDS011;6170;42.206;24.142;2022-11-20T14:56:55;2.25;;;1.10;;